Time;durP1;ratioP1;P1;durP2;ratioP2;P2;SDS_P1;SDS_P2;PMS_P1;PMS_P2;Temp;Humidity;BMP_temperature;BMP_pressure;BME280_temperature;BME280_humidity;BME280_pressure;Samples;Min_cycle;Max_cycle;Signal;HPM_P1;HPM_P2
2024/02/29 00:04:08;;;;;;;17.73;6.97;;;;;;;15.74;100.00;101539.22;10506606;28;20485;-87
2024/02/29 00:09:31;;;;;;;12.27;5.85;;;;;;;15.68;100.00;101547.16;10458693;28;20112;-87
2024/02/29 00:14:54;;;;;;;14.18;5.75;;;;;;;15.66;100.00;101543.59;10492338;28;20075;-87
2024/02/29 00:20:17;;;;;;;10.73;5.45;;;;;;;15.69;100.00;101543.59;10463598;28;20099;-88
2024/02/29 00:25:40;;;;;;;25.48;7.25;;;;;;;15.74;100.00;101546.31;10461304;28;20055;-87
2024/02/29 00:31:04;;;;;;;15.15;5.65;;;;;;;15.69;100.00;101535.59;10501107;28;20190;-88
2024/02/29 00:36:27;;;;;;;10.20;4.72;;;;;;;15.80;100.00;101528.59;10498467;28;20106;-87
2024/02/29 00:41:49;;;;;;;14.07;4.93;;;;;;;15.75;100.00;101526.78;10482008;28;20044;-87
2024/02/29 00:47:14;;;;;;;9.30;4.30;;;;;;;15.76;100.00;101528.53;10476792;28;20056;-87
2024/02/29 00:52:36;;;;;;;13.00;5.18;;;;;;;15.82;100.00;101537.47;10505396;28;20060;-87
2024/02/29 00:57:59;;;;;;;12.70;5.85;;;;;;;15.76;100.00;101533.88;10477077;28;20048;-87
2024/02/29 01:03:23;;;;;;;10.63;5.45;;;;;;;15.63;100.00;101530.22;10499751;28;20061;-88
2024/02/29 01:08:45;;;;;;;14.43;5.53;;;;;;;15.61;100.00;101521.38;10477156;28;20091;-87
2024/02/29 01:14:08;;;;;;;14.68;5.78;;;;;;;15.65;100.00;101514.28;10476134;28;20045;-87
2024/02/29 01:19:32;;;;;;;14.98;5.82;;;;;;;15.42;100.00;101504.34;10497038;28;20052;-88
2024/02/29 01:24:54;;;;;;;13.20;5.30;;;;;;;15.52;100.00;101497.31;10475657;28;20072;-86
2024/02/29 01:30:17;;;;;;;15.10;5.57;;;;;;;15.53;100.00;101488.47;10476674;28;20071;-88
2024/02/29 01:35:41;;;;;;;12.18;5.43;;;;;;;15.62;100.00;101488.53;10497130;28;20048;-87
2024/02/29 01:41:04;;;;;;;19.73;6.43;;;;;;;15.52;100.00;101486.66;10489458;28;20105;-87
2024/02/29 01:46:27;;;;;;;12.38;4.78;;;;;;;15.54;100.00;101490.25;10490835;28;20082;-88
2024/02/29 01:51:51;;;;;;;13.32;5.75;;;;;;;15.57;100.00;101494.69;10496762;28;20049;-87
2024/02/29 01:57:14;;;;;;;13.73;4.93;;;;;;;15.58;100.00;101500.03;10499518;28;20068;-87
2024/02/29 02:02:37;;;;;;;13.20;5.30;;;;;;;15.70;100.00;101486.81;10483512;28;20075;-87
2024/02/29 02:08:03;;;;;;;14.10;5.00;;;;;;;15.68;100.00;101482.38;10482705;28;20504;-87
2024/02/29 02:13:26;;;;;;;15.57;5.85;;;;;;;15.65;100.00;101483.22;10496078;28;20545;-87
2024/02/29 02:18:48;;;;;;;14.82;6.03;;;;;;;15.62;100.00;101483.19;10508516;28;20045;-87
2024/02/29 02:24:13;;;;;;;9.85;5.15;;;;;;;15.76;100.00;101493.94;10495292;28;20083;-87
2024/02/29 02:29:35;;;;;;;13.02;5.40;;;;;;;15.68;100.00;101477.94;10524019;28;20534;-87
2024/02/29 02:34:57;;;;;;;16.50;5.13;;;;;;;16.02;100.00;101484.31;10481905;28;20045;-85
2024/02/29 02:40:22;;;;;;;17.52;5.50;;;;;;;15.64;100.00;101481.44;10480775;28;20048;-86
2024/02/29 02:45:44;;;;;;;13.65;5.20;;;;;;;15.39;100.00;101475.03;10494112;28;20056;-85
2024/02/29 02:51:07;;;;;;;15.02;5.28;;;;;;;15.28;100.00;101470.53;10481128;28;20044;-85
2024/02/29 02:56:31;;;;;;;18.13;5.72;;;;;;;15.46;100.00;101483.94;10476441;28;20048;-85
2024/02/29 03:01:53;;;;;;;14.45;4.97;;;;;;;15.59;100.00;101483.19;10501669;28;20156;-85
2024/02/29 03:07:16;;;;;;;14.85;5.05;;;;;;;15.61;100.00;101481.44;10480165;28;20098;-85
2024/02/29 03:12:40;;;;;;;18.00;5.45;;;;;;;15.62;100.00;101488.53;10493812;28;20135;-85
2024/02/29 03:18:02;;;;;;;10.40;4.65;;;;;;;15.69;100.00;101479.69;10521585;28;20052;-86
2024/02/29 03:23:25;;;;;;;12.65;5.13;;;;;;;15.64;100.00;101486.78;10479498;28;20052;-84
2024/02/29 03:28:49;;;;;;;13.95;4.82;;;;;;;15.76;100.00;101486.84;10495627;28;20060;-86
2024/02/29 03:34:11;;;;;;;18.42;5.28;;;;;;;15.79;100.00;101484.22;10493749;28;20045;-87
2024/02/29 03:39:33;;;;;;;12.20;4.90;;;;;;;15.89;100.00;101494.03;10478702;28;20052;-87
2024/02/29 03:44:57;;;;;;;13.55;4.78;;;;;;;16.00;100.00;101494.09;10477835;28;20060;-87
2024/02/29 03:50:20;;;;;;;14.05;4.85;;;;;;;16.21;100.00;101504.81;10478072;28;20045;-87
2024/02/29 03:55:45;;;;;;;13.80;5.07;;;;;;;16.16;100.00;101506.59;10489719;28;20044;-87
2024/02/29 04:01:11;;;;;;;9.82;4.50;;;;;;;16.17;100.00;101507.47;10509421;28;20048;-87
2024/02/29 04:06:34;;;;;;;12.35;5.63;;;;;;;16.03;100.00;101495.88;10519278;28;20126;-87
2024/02/29 04:11:57;;;;;;;11.60;5.30;;;;;;;15.97;100.00;101502.06;10476088;28;20583;-87
2024/02/29 04:17:21;;;;;;;15.43;4.75;;;;;;;15.88;100.00;101491.38;10458498;28;20109;-87
2024/02/29 04:22:44;;;;;;;10.57;4.75;;;;;;;16.05;100.00;101499.44;10516079;28;20045;-87
2024/02/29 04:28:07;;;;;;;11.00;5.47;;;;;;;16.17;100.00;101488.84;10478395;28;20163;-87
2024/02/29 04:33:31;;;;;;;10.60;4.10;;;;;;;16.15;100.00;101496.81;10502358;28;20098;-88
2024/02/29 04:38:53;;;;;;;15.82;5.32;;;;;;;16.11;100.00;101496.81;10499943;28;20045;-85
2024/02/29 04:44:16;;;;;;;11.68;4.18;;;;;;;16.18;100.00;101509.28;10517830;28;20049;-84
2024/02/29 04:49:39;;;;;;;13.05;4.97;;;;;;;16.26;100.00;101521.75;10490716;28;20558;-85
2024/02/29 04:55:02;;;;;;;9.65;4.25;;;;;;;16.17;100.00;101511.03;10476054;28;20131;-85
2024/02/29 05:00:24;;;;;;;14.68;4.03;;;;;;;16.12;100.00;101504.81;10459848;28;20049;-86
2024/02/29 05:05:48;;;;;;;11.48;4.38;;;;;;;16.26;100.00;101528.84;10482671;28;20052;-86
2024/02/29 05:11:11;;;;;;;8.68;3.50;;;;;;;16.52;100.00;101539.63;10502589;28;20044;-85
2024/02/29 05:16:34;;;;;;;14.95;5.72;;;;;;;16.75;100.00;101535.28;10504253;28;20063;-85
2024/02/29 05:21:57;;;;;;;7.32;3.63;;;;;;;16.94;100.00;101531.75;10500606;28;20107;-85
2024/02/29 05:27:20;;;;;;;8.25;3.05;;;;;;;17.11;100.00;101542.47;10484064;28;20040;-85
2024/02/29 05:32:42;;;;;;;13.50;4.18;;;;;;;17.61;100.00;101553.19;10510532;28;20056;-85
2024/02/29 05:38:07;;;;;;;19.98;5.07;;;;;;;18.08;100.00;101558.47;10504056;28;20369;-85
2024/02/29 05:43:29;;;;;;;8.93;4.55;;;;;;;18.35;100.00;101578.00;10483108;28;20032;-87
2024/02/29 05:48:52;;;;;;;7.88;3.92;;;;;;;18.65;100.00;101585.94;10483837;28;20060;-87
2024/02/29 05:54:16;;;;;;;6.30;3.03;;;;;;;19.07;100.00;101598.22;10466700;28;20135;-88
2024/02/29 05:59:38;;;;;;;7.80;2.75;;;;;;;19.89;87.89;101590.44;10487998;28;20054;-88
2024/02/29 06:05:01;;;;;;;8.30;3.05;;;;;;;20.57;80.36;101602.28;10484500;28;20386;-87
2024/02/29 06:10:25;;;;;;;12.23;3.30;;;;;;;21.39;76.96;101597.63;10478008;28;20048;-88
2024/02/29 06:15:47;;;;;;;9.25;3.28;;;;;;;22.35;65.77;101599.53;10495815;28;20496;-87
2024/02/29 06:21:10;;;;;;;7.43;3.72;;;;;;;22.83;62.70;101613.84;10507863;28;20060;-87
2024/02/29 06:26:34;;;;;;;9.82;3.55;;;;;;;22.80;59.05;101613.88;10521368;28;20136;-87
2024/02/29 06:31:57;;;;;;;10.98;3.42;;;;;;;22.80;57.33;101607.59;10481264;28;20134;-87
2024/02/29 06:37:20;;;;;;;7.78;3.17;;;;;;;23.61;54.87;101588.69;10496216;28;20052;-87
2024/02/29 06:42:44;;;;;;;13.57;5.55;;;;;;;23.53;50.58;101579.00;10481801;28;20132;-87
2024/02/29 06:48:07;;;;;;;10.18;3.72;;;;;;;23.96;48.57;101586.91;10480456;28;20052;-87
2024/02/29 06:53:31;;;;;;;10.02;3.83;;;;;;;23.05;51.50;101588.19;10493179;28;20451;-87
2024/02/29 06:58:55;;;;;;;10.80;4.93;;;;;;;22.60;56.77;101600.81;10459974;28;20060;-87
2024/02/29 07:04:18;;;;;;;13.88;5.10;;;;;;;23.81;51.68;101590.88;10478619;28;20047;-87
2024/02/29 07:09:42;;;;;;;6.30;3.53;;;;;;;24.63;45.31;101591.31;10467533;28;20090;-87
2024/02/29 07:15:07;;;;;;;12.27;5.57;;;;;;;23.51;48.90;101592.53;10466428;28;20067;-88
2024/02/29 07:20:29;;;;;;;8.88;4.97;;;;;;;22.56;52.27;101598.22;10498373;28;20118;-88
2024/02/29 07:25:53;;;;;;;10.60;5.20;;;;;;;22.33;54.42;101578.94;10479400;28;20055;-88
2024/02/29 07:31:19;;;;;;;9.38;3.70;;;;;;;22.00;52.63;101594.78;10491765;28;20045;-89
2024/02/29 07:36:42;;;;;;;7.80;3.58;;;;;;;21.92;52.80;101564.47;10504354;28;20074;-90
2024/02/29 07:42:04;;;;;;;10.57;5.10;;;;;;;22.86;50.76;101573.34;10492658;28;20622;-88
2024/02/29 07:47:28;;;;;;;9.68;3.65;;;;;;;25.56;43.97;101577.63;10492074;28;20057;-89
2024/02/29 07:52:51;;;;;;;18.15;5.43;;;;;;;25.97;41.44;101563.59;10467581;28;20052;-87
2024/02/29 07:58:13;;;;;;;6.97;3.40;;;;;;;26.05;39.76;101568.75;10510559;28;20102;-90
2024/02/29 08:03:38;;;;;;;9.98;3.53;;;;;;;25.99;39.40;101560.84;10491762;28;20055;-88
2024/02/29 08:09:02;;;;;;;6.78;3.25;;;;;;;26.04;40.57;101551.63;10489730;28;20396;-89
2024/02/29 08:14:25;;;;;;;8.90;3.90;;;;;;;25.96;38.60;101542.88;10518283;28;20048;-88
2024/02/29 08:19:49;;;;;;;13.07;5.53;;;;;;;24.61;41.45;101523.00;10484516;28;20621;-85
2024/02/29 08:25:12;;;;;;;11.45;4.47;;;;;;;24.17;42.67;101521.53;10471700;28;20049;-87
2024/02/29 08:30:34;;;;;;;9.10;4.40;;;;;;;24.75;41.82;101499.13;10483765;28;20048;-85
2024/02/29 08:36:00;;;;;;;11.77;5.07;;;;;;;25.71;40.11;101528.47;10473212;28;20040;-85
2024/02/29 08:41:22;;;;;;;9.32;4.40;;;;;;;27.05;37.81;101526.13;10491892;28;20056;-84
2024/02/29 08:46:45;;;;;;;10.88;4.22;;;;;;;26.30;38.67;101539.88;10503892;28;20553;-87
2024/02/29 08:52:10;;;;;;;9.13;4.65;;;;;;;26.43;39.50;101545.72;10472673;28;20064;-88
2024/02/29 08:57:32;;;;;;;5.63;3.17;;;;;;;26.71;37.86;101523.88;10472281;28;20609;-86
2024/02/29 09:02:56;;;;;;;8.20;4.38;;;;;;;26.53;38.36;101537.16;10482086;28;20409;-85
2024/02/29 09:08:21;;;;;;;5.60;3.60;;;;;;;25.10;41.07;101546.69;10480371;28;20041;-88
2024/02/29 09:13:43;;;;;;;6.05;4.13;;;;;;;26.21;40.47;101537.47;10471081;28;20045;-86
2024/02/29 09:19:06;;;;;;;9.55;3.97;;;;;;;26.71;38.53;101518.47;10495957;28;20104;-87
2024/02/29 09:24:30;;;;;;;5.25;3.13;;;;;;;27.17;37.16;101514.81;10481944;28;20055;-85
2024/02/29 09:29:52;;;;;;;8.82;3.65;;;;;;;27.76;35.31;101515.88;10464686;28;20075;-84
2024/02/29 09:35:15;;;;;;;6.75;3.90;;;;;;;26.06;37.55;101522.66;10512020;27;20060;-86
2024/02/29 09:40:39;;;;;;;7.55;3.67;;;;;;;25.80;38.72;101503.75;10471234;28;20060;-87
2024/02/29 09:46:02;;;;;;;8.50;3.53;;;;;;;26.24;39.16;101504.91;10462813;28;20570;-87
2024/02/29 09:51:26;;;;;;;6.80;4.00;;;;;;;26.85;38.60;101511.53;10496886;28;20053;-87
2024/02/29 09:56:50;;;;;;;9.32;3.65;;;;;;;26.64;38.52;101506.97;10469520;28;20076;-86
2024/02/29 10:02:16;;;;;;;9.40;3.67;;;;;;;27.37;37.24;101499.44;10461030;28;20087;-90
2024/02/29 10:07:47;;;;;;;7.18;3.13;;;;;;;25.94;39.20;101503.25;10473875;28;20041;-91
2024/02/29 10:13:11;;;;;;;12.57;3.17;;;;;;;24.88;40.92;101462.69;10476816;28;20048;-88
2024/02/29 10:18:35;;;;;;;9.10;3.95;;;;;;;25.23;40.65;101463.38;10479160;28;20496;-87
2024/02/29 10:23:58;;;;;;;9.43;4.57;;;;;;;25.21;40.10;101503.97;10500633;28;20091;-89
2024/02/29 10:29:22;;;;;;;10.40;3.85;;;;;;;25.40;41.01;101455.59;10475440;28;20131;-89
2024/02/29 10:34:44;;;;;;;8.32;5.00;;;;;;;25.62;42.36;101470.13;10483300;28;20105;-88
2024/02/29 10:40:09;;;;;;;12.55;4.78;;;;;;;24.96;43.27;101452.53;10497657;28;20072;-86
2024/02/29 10:45:38;;;;;;;;;;;;;;;24.70;43.75;101433.56;10471659;28;20094;-87
2024/02/29 10:51:06;;;;;;;10.75;4.18;;;;;;;24.30;42.84;101439.31;10468061;28;19956;-88
2024/02/29 10:56:29;;;;;;;11.68;5.10;;;;;;;24.63;45.10;101448.19;10473569;28;20609;-89
2024/02/29 11:01:58;;;;;;;8.93;4.00;;;;;;;25.89;43.66;101453.84;10480839;28;20075;-87
2024/02/29 11:07:24;;;;;;;11.50;4.40;;;;;;;25.89;41.37;101433.09;10485971;28;20048;-90
2024/02/29 11:12:48;;;;;;;10.68;5.15;;;;;;;24.84;44.88;101430.41;10467741;28;20045;-89
2024/02/29 11:18:21;;;;;;;12.90;5.05;;;;;;;24.66;45.44;101396.78;10454609;28;20579;-85
2024/02/29 11:23:43;;;;;;;11.82;4.43;;;;;;;24.08;48.12;101389.59;10486010;28;20316;-89
2024/02/29 11:29:15;;;;;;;11.27;4.75;;;;;;;24.02;49.17;101368.22;10493646;28;20049;-87
2024/02/29 11:34:40;;;;;;;15.60;4.00;;;;;;;24.04;47.58;101374.41;10486098;28;20072;-90
2024/02/29 11:40:04;;;;;;;11.88;4.05;;;;;;;23.52;50.67;101375.06;10477995;28;20053;-91
2024/02/29 11:45:26;;;;;;;11.43;4.45;;;;;;;23.11;53.60;101378.81;10508837;27;20052;-87
2024/02/29 11:50:51;;;;;;;12.82;4.30;;;;;;;22.93;56.45;101373.00;10472241;28;20092;-87
2024/02/29 11:56:13;;;;;;;11.43;5.25;;;;;;;22.48;54.19;101369.59;10461303;28;20044;-86
2024/02/29 12:01:36;;;;;;;10.10;4.53;;;;;;;22.30;64.56;101383.50;10471904;28;20055;-85
2024/02/29 12:07:01;;;;;;;18.75;5.95;;;;;;;22.58;65.66;101368.44;10484046;28;20483;-86
2024/02/29 12:12:24;;;;;;;11.65;5.70;;;;;;;22.83;64.83;101360.72;10483998;28;20036;-86
2024/02/29 12:17:56;;;;;;;10.35;4.30;;;;;;;23.27;60.63;101355.94;10466408;28;20044;-84
2024/02/29 12:23:21;;;;;;;11.82;4.68;;;;;;;22.92;59.62;101343.41;10499264;28;20057;-85
2024/02/29 12:28:43;;;;;;;8.48;4.20;;;;;;;22.68;62.62;101320.66;10478301;28;20040;-85
2024/02/29 12:34:06;;;;;;;12.10;5.05;;;;;;;22.48;64.66;101325.66;10483108;28;20049;-82
2024/02/29 12:39:30;;;;;;;8.30;5.13;;;;;;;22.09;72.19;101349.88;10475936;28;20087;-85
2024/02/29 12:44:53;;;;;;;8.65;4.45;;;;;;;22.12;68.54;101347.09;10484394;28;20044;-85
2024/02/29 12:50:16;;;;;;;15.38;6.57;;;;;;;21.57;71.84;101343.81;10488402;28;20061;-90
2024/02/29 12:55:41;;;;;;;8.85;4.63;;;;;;;21.20;77.11;101344.53;10509612;28;20590;-83
2024/02/29 13:01:05;;;;;;;10.77;4.40;;;;;;;21.51;76.56;101360.06;10470125;28;20048;-90
2024/02/29 13:06:27;;;;;;;8.23;4.03;;;;;;;21.48;73.65;101355.63;10465470;28;20041;-90
2024/02/29 13:11:51;;;;;;;10.73;5.00;;;;;;;21.74;74.23;101347.91;10484643;28;20071;-88
2024/02/29 13:17:14;;;;;;;9.68;4.03;;;;;;;22.09;68.97;101355.25;10492167;28;20045;-84
2024/02/29 13:22:36;;;;;;;11.98;4.20;;;;;;;21.61;72.31;101359.84;10484962;28;20384;-90
2024/02/29 13:28:00;;;;;;;13.65;5.10;;;;;;;21.29;76.69;101370.31;10508701;28;20500;-89
2024/02/29 13:33:23;;;;;;;10.20;4.38;;;;;;;21.48;73.56;101359.19;10490877;28;20497;-88
2024/02/29 13:38:46;;;;;;;10.80;4.72;;;;;;;21.65;71.57;101371.44;10460211;28;20065;-85
2024/02/29 13:44:10;;;;;;;9.18;5.03;;;;;;;21.86;70.34;101368.28;10486728;28;20452;-89
2024/02/29 13:49:33;;;;;;;13.23;5.88;;;;;;;21.70;69.95;101367.72;10459252;28;20052;-88
2024/02/29 13:54:55;;;;;;;12.73;5.40;;;;;;;21.55;70.72;101367.13;10445296;28;20071;-83
2024/02/29 14:00:20;;;;;;;8.77;4.93;;;;;;;20.94;76.37;101370.91;10450892;28;20113;-85
2024/02/29 14:05:43;;;;;;;13.02;5.85;;;;;;;20.65;82.17;101372.31;10466847;28;20132;-88
2024/02/29 14:11:06;;;;;;;22.35;7.18;;;;;;;20.56;85.03;101361.72;10487789;28;20129;-86
2024/02/29 14:16:30;;;;;;;13.02;6.63;;;;;;;20.58;85.36;101367.94;10480501;28;20053;-84
2024/02/29 14:21:52;;;;;;;9.63;5.80;;;;;;;20.48;83.35;101352.03;10474592;28;20492;-91
2024/02/29 14:27:15;;;;;;;13.02;5.20;;;;;;;20.15;87.78;101359.59;10506832;28;20048;-90
2024/02/29 14:32:39;;;;;;;14.32;5.45;;;;;;;20.20;89.28;101359.56;10487689;28;20052;-91
2024/02/29 14:38:02;;;;;;;14.93;6.07;;;;;;;20.13;88.52;101352.50;10454789;28;20059;-92
2024/02/29 14:43:24;;;;;;;11.15;4.95;;;;;;;20.03;90.98;101342.81;10507168;28;20060;-92
2024/02/29 14:48:49;;;;;;;13.45;5.50;;;;;;;19.72;93.77;101345.91;10529793;28;20080;-91
2024/02/29 14:54:11;;;;;;;10.85;5.30;;;;;;;19.47;97.70;101339.97;10478490;28;20491;-91
2024/02/29 14:59:34;;;;;;;14.27;6.10;;;;;;;19.39;100.00;101343.59;10493697;28;20057;-91
2024/02/29 15:04:58;;;;;;;13.40;6.90;;;;;;;19.49;99.65;101354.22;10499360;28;20048;-91
2024/02/29 15:10:22;;;;;;;14.95;6.25;;;;;;;19.28;100.00;101346.41;10480922;28;20059;-92
2024/02/29 15:15:44;;;;;;;13.25;6.28;;;;;;;19.20;100.00;101356.28;10478721;28;20098;-91
2024/02/29 15:21:08;;;;;;;16.17;5.95;;;;;;;18.97;100.00;101353.84;10480554;28;20056;-91
2024/02/29 15:26:34;;;;;;;16.42;5.53;;;;;;;18.87;100.00;101356.63;10472017;28;20040;-91
2024/02/29 15:31:57;;;;;;;12.05;6.35;;;;;;;18.68;100.00;101354.09;10458895;28;20109;-91
2024/02/29 15:37:21;;;;;;;13.20;5.95;;;;;;;18.61;100.00;101346.13;10493199;28;20067;-90
2024/02/29 15:42:44;;;;;;;10.57;5.03;;;;;;;18.54;100.00;101347.94;10470816;28;20047;-90
2024/02/29 15:48:07;;;;;;;13.10;5.25;;;;;;;18.60;100.00;101345.25;10517830;28;20105;-90
2024/02/29 15:53:31;;;;;;;14.63;6.53;;;;;;;18.52;100.00;101346.16;10498960;28;20056;-91
2024/02/29 15:58:54;;;;;;;16.08;6.03;;;;;;;18.55;100.00;101351.50;10479158;28;20090;-91
2024/02/29 16:04:16;;;;;;;17.77;6.90;;;;;;;18.53;100.00;101342.59;10453138;28;20056;-89
2024/02/29 16:09:42;;;;;;;14.10;6.25;;;;;;;18.52;100.00;101340.81;10505679;28;20252;-90
2024/02/29 16:15:06;;;;;;;12.85;6.85;;;;;;;18.55;100.00;101346.16;10489093;28;20060;-89
2024/02/29 16:20:28;;;;;;;13.82;5.78;;;;;;;18.54;100.00;101333.69;10487934;28;20041;-89
2024/02/29 16:25:54;;;;;;;12.77;5.45;;;;;;;18.59;100.00;101326.53;10506188;28;20049;-83
2024/02/29 16:31:18;;;;;;;18.02;5.65;;;;;;;18.52;100.00;101308.72;10453262;28;20043;-83
2024/02/29 16:36:41;;;;;;;11.07;4.95;;;;;;;18.61;100.00;101311.38;10475760;28;20048;-83
2024/02/29 16:42:06;;;;;;;13.25;6.63;;;;;;;18.60;100.00;101309.59;10482074;28;20048;-84
2024/02/29 16:47:28;;;;;;;9.88;4.88;;;;;;;18.61;100.00;101322.06;10451040;28;20041;-83
2024/02/29 16:52:51;;;;;;;13.23;5.55;;;;;;;18.58;100.00;101319.41;10470467;28;20511;-85
2024/02/29 16:58:15;;;;;;;12.65;5.15;;;;;;;18.58;100.00;101320.28;10501755;28;20033;-85
2024/02/29 17:03:37;;;;;;;13.50;5.82;;;;;;;18.55;100.00;101319.41;10477532;28;20110;-85
2024/02/29 17:09:00;;;;;;;14.70;4.93;;;;;;;18.62;100.00;101321.19;10490393;28;20048;-84
2024/02/29 17:14:24;;;;;;;13.23;5.88;;;;;;;18.62;100.00;101305.13;10445437;28;20396;-83
2024/02/29 17:19:46;;;;;;;17.35;6.43;;;;;;;18.59;100.00;101321.19;10469596;28;20048;-82
2024/02/29 17:25:10;;;;;;;13.55;5.72;;;;;;;18.60;100.00;101320.28;10477636;28;20083;-86
2024/02/29 17:30:34;;;;;;;12.38;5.28;;;;;;;18.60;100.00;101301.56;10511365;28;20110;-89
2024/02/29 17:35:57;;;;;;;15.40;5.78;;;;;;;18.72;100.00;101312.16;10481344;28;20260;-87
2024/02/29 17:41:20;;;;;;;15.23;5.50;;;;;;;18.72;100.00;101312.16;10477723;28;20045;-88
2024/02/29 17:46:44;;;;;;;14.10;5.60;;;;;;;18.68;100.00;101289.03;10492325;28;20048;-88
2024/02/29 17:52:07;;;;;;;12.88;6.15;;;;;;;18.70;100.00;101273.84;10474670;28;20470;-89
2024/02/29 17:57:29;;;;;;;15.45;6.05;;;;;;;18.69;100.00;101243.53;10507293;28;20059;-84
2024/02/29 18:02:54;;;;;;;14.35;7.57;;;;;;;19.00;100.00;101248.56;10453333;28;20048;-86
2024/02/29 18:08:17;;;;;;;13.57;5.93;;;;;;;18.86;100.00;101264.75;10489862;28;20052;-88
2024/02/29 18:13:39;;;;;;;9.25;5.00;;;;;;;18.76;100.00;101270.22;10457263;28;20496;-84
2024/02/29 18:19:03;;;;;;;10.55;4.93;;;;;;;18.65;100.00;101273.00;10452685;28;20064;-89
2024/02/29 18:24:26;;;;;;;18.33;5.90;;;;;;;18.65;100.00;101267.63;10521299;28;20106;-89
2024/02/29 18:29:49;;;;;;;15.52;4.68;;;;;;;18.66;100.00;101270.31;10480949;28;20094;-88
2024/02/29 18:35:13;;;;;;;17.40;5.88;;;;;;;18.55;100.00;101271.28;10486692;27;20492;-86
2024/02/29 18:40:36;;;;;;;15.95;5.57;;;;;;;18.64;100.00;101271.25;10478656;28;20111;-89
2024/02/29 18:45:58;;;;;;;11.27;5.70;;;;;;;18.76;100.00;101259.53;10483351;28;20540;-87
2024/02/29 18:51:22;;;;;;;18.92;7.32;;;;;;;18.82;100.00;101255.00;10503755;27;20056;-88
2024/02/29 18:56:47;;;;;;;14.10;5.43;;;;;;;18.92;100.00;101216.53;10480609;28;20107;-84
2024/02/29 19:02:09;;;;;;;12.20;6.13;;;;;;;18.88;100.00;101212.13;10454309;28;20082;-87
2024/02/29 19:07:34;;;;;;;15.20;5.65;;;;;;;18.69;100.00;101239.97;10460925;28;20040;-84
2024/02/29 19:12:56;;;;;;;12.63;5.60;;;;;;;18.90;100.00;101225.50;10481539;28;20511;-88
2024/02/29 19:18:19;;;;;;;19.00;5.72;;;;;;;18.59;100.00;101222.22;10470792;28;20048;-89
2024/02/29 19:23:43;;;;;;;12.73;4.60;;;;;;;18.68;100.00;101222.16;10477159;28;20056;-89
2024/02/29 19:29:06;;;;;;;15.40;7.57;;;;;;;18.57;100.00;101240.09;10488203;28;20535;-89
2024/02/29 19:34:28;;;;;;;10.00;4.50;;;;;;;18.67;100.00;101231.06;10499510;28;20056;-88
2024/02/29 19:39:52;;;;;;;14.40;6.00;;;;;;;18.50;100.00;101215.19;10479394;28;20056;-87
2024/02/29 19:45:15;;;;;;;14.40;6.00;;;;;;;18.52;100.00;101224.03;10494253;28;20045;-85
2024/02/29 19:50:38;;;;;;;15.90;5.53;;;;;;;18.40;100.00;101210.81;10472807;28;20057;-87
2024/02/29 19:56:02;;;;;;;10.00;4.95;;;;;;;18.46;100.00;101183.13;10472310;28;20111;-86
2024/02/29 20:01:24;;;;;;;16.65;5.32;;;;;;;18.53;100.00;101212.47;10483352;28;20059;-88
2024/02/29 20:06:47;;;;;;;12.45;4.88;;;;;;;18.56;100.00;101200.88;10519504;28;20522;-86
2024/02/29 20:12:11;;;;;;;14.80;6.50;;;;;;;18.61;100.00;101173.19;10490343;28;20182;-88
2024/02/29 20:17:33;;;;;;;15.52;4.88;;;;;;;18.54;100.00;101183.94;10459149;28;20048;-90
2024/02/29 20:22:58;;;;;;;14.57;6.35;;;;;;;18.58;97.61;101151.81;10486532;28;20053;-86
2024/02/29 20:28:23;;;;;;;12.13;5.10;;;;;;;18.62;95.59;101142.88;10496104;28;20049;-84
2024/02/29 20:33:45;;;;;;;20.08;6.05;;;;;;;18.61;96.19;101121.50;10466618;28;20044;-87
2024/02/29 20:39:08;;;;;;;16.23;7.03;;;;;;;18.45;100.00;101126.06;10449069;28;20060;-89
2024/02/29 20:44:32;;;;;;;8.55;4.47;;;;;;;18.36;100.00;101163.63;10478696;28;20554;-88
2024/02/29 20:49:54;;;;;;;13.57;4.30;;;;;;;18.39;98.18;101125.25;10511916;28;20041;-90
2024/02/29 20:55:17;;;;;;;12.45;4.88;;;;;;;18.27;100.00;101116.47;10492032;28;20056;-91
2024/02/29 21:00:41;;;;;;;16.88;5.15;;;;;;;18.29;93.37;101119.13;10500910;28;20391;-90
2024/02/29 21:06:04;;;;;;;11.85;4.57;;;;;;;18.39;88.90;101096.75;10528136;28;20075;-91
2024/02/29 21:11:27;;;;;;;9.65;3.58;;;;;;;18.30;82.08;101083.50;10469010;28;20049;-90
2024/02/29 21:16:59;;;;;;;17.13;5.13;;;;;;;18.32;92.39;101106.63;10455292;28;20519;-90
2024/02/29 21:22:22;;;;;;;13.98;4.75;;;;;;;18.30;93.15;101116.47;10473512;28;20064;-90
2024/02/29 21:27:44;;;;;;;12.75;4.25;;;;;;;18.09;100.00;101081.94;10437525;28;20504;-90
2024/02/29 21:33:08;;;;;;;11.80;4.28;;;;;;;18.17;98.31;101104.13;10474220;28;20127;-91
2024/02/29 21:38:30;;;;;;;15.27;4.13;;;;;;;18.17;92.82;101105.91;10466427;28;20056;-90
2024/02/29 21:43:55;;;;;;;13.57;4.13;;;;;;;18.47;88.40;101118.06;10458395;28;20048;-90
2024/02/29 21:49:19;;;;;;;8.60;2.65;;;;;;;18.40;82.57;101143.06;10459277;28;20057;-87
2024/02/29 21:54:42;;;;;;;10.73;3.90;;;;;;;18.23;88.45;101140.59;10456752;28;20296;-88
2024/02/29 22:00:08;;;;;;;13.20;4.18;;;;;;;18.26;86.82;101071.94;10437434;28;20048;-89
2024/02/29 22:05:35;;;;;;;8.77;3.72;;;;;;;18.49;60.97;101068.13;10482236;28;20053;-91
2024/02/29 22:10:58;;;;;;;9.20;4.40;;;;;;;18.59;65.42;101045.72;10471107;28;20515;-90
2024/02/29 22:16:22;;;;;;;12.23;4.35;;;;;;;18.70;55.97;101028.66;10524874;28;20045;-88
2024/02/29 22:21:45;;;;;;;13.90;3.65;;;;;;;18.60;63.81;101018.09;10495668;28;20393;-92
2024/02/29 22:27:08;;;;;;;13.82;3.53;;;;;;;18.86;61.79;101045.38;10495656;28;20056;-91
2024/02/29 22:32:30;;;;;;;12.70;3.30;;;;;;;18.93;77.31;101063.13;10482612;28;20044;-93
2024/02/29 22:37:54;;;;;;;11.30;3.55;;;;;;;18.90;78.33;101070.31;10496360;28;20048;-89
2024/02/29 22:43:17;;;;;;;13.52;4.22;;;;;;;18.76;74.71;101035.72;10493452;28;20106;-90
2024/02/29 22:48:40;;;;;;;13.25;3.78;;;;;;;18.55;84.10;101017.25;10479180;28;20086;-89
2024/02/29 22:54:04;;;;;;;15.38;5.15;;;;;;;18.22;92.98;100959.75;10466840;28;20052;-91
2024/02/29 22:59:26;;;;;;;13.25;4.88;;;;;;;18.28;87.45;100981.06;10496405;28;20048;-91
2024/02/29 23:04:48;;;;;;;18.58;5.05;;;;;;;18.26;97.17;100980.19;10491153;28;20408;-90
2024/02/29 23:10:15;;;;;;;15.60;4.53;;;;;;;18.11;100.00;100985.72;10477395;28;20053;-90
2024/02/29 23:15:37;;;;;;;14.75;4.43;;;;;;;18.12;100.00;100998.16;10490487;28;20139;-91
2024/02/29 23:20:59;;;;;;;19.50;6.03;;;;;;;18.11;100.00;101008.00;10477243;28;20403;-91
2024/02/29 23:26:24;;;;;;;16.52;6.05;;;;;;;18.00;100.00;100972.47;10489963;28;20048;-90
2024/02/29 23:31:46;;;;;;;11.23;5.32;;;;;;;18.06;100.00;100977.75;10476925;28;20059;-92
2024/02/29 23:37:09;;;;;;;19.13;5.60;;;;;;;18.03;100.00;100953.75;10504777;28;20515;-87
2024/02/29 23:42:33;;;;;;;12.32;4.80;;;;;;;18.01;100.00;100943.97;10490486;28;20046;-87
2024/02/29 23:47:56;;;;;;;16.40;4.82;;;;;;;18.08;100.00;100964.38;10463266;28;20045;-88
2024/02/29 23:53:18;;;;;;;11.60;4.57;;;;;;;18.13;100.00;100951.84;10486661;28;20059;-88
2024/02/29 23:58:43;;;;;;;19.40;5.88;;;;;;;18.22;100.00;100968.66;10486092;28;20051;-87
